Terminal Aerodrome Forecast
Issued by NWS Sioux Falls, SD

Home | Current Version | Previous Version | Text Only | Print | Product List | Glossary Off
Versions: 1 2 3 4 5 6 7 8 9 10 11 12 13 14 15 16 17 18 19 20 21 22 23 24 25 26 27 28 29 30 31 32 33 34 35 36

693
FTUS43 KFSD 301733
TAFSUX
TAF
KSUX 301733Z 3018/0118 31018KT P6SM VCSH OVC015
     FM302100 31018KT P6SM VCSH OVC020
     FM302200 30016G24KT P6SM VCSH OVC015
     FM302300 30015G23KT P6SM OVC015
     FM010500 30011KT P6SM OVC015
     FM010600 30011KT P6SM OVC020
     FM010700 30011KT P6SM OVC015=

USA.gov is the U.S. government's official web portal to all federal, state and local government web resources and services.